createdAt,value
2023-04-17T00:00:07.219Z,80.57
2023-04-17T00:01:07.559Z,80.67
2023-04-17T00:02:07.798Z,80.57
2023-04-17T00:03:08.311Z,80.77
2023-04-17T00:04:08.511Z,80.67
2023-04-17T00:05:08.792Z,80.26
2023-04-17T00:06:09.017Z,80.36
2023-04-17T00:07:09.281Z,80.47
2023-04-17T00:08:09.496Z,80.67
2023-04-17T00:09:10.018Z,80.77
2023-04-17T00:10:10.017Z,80.57
2023-04-17T00:11:10.199Z,80.67
2023-04-17T00:12:10.537Z,80.57
2023-04-17T00:13:10.964Z,80.67
2023-04-17T00:14:11.187Z,80.67
2023-04-17T00:15:11.527Z,80.77
2023-04-17T00:16:11.799Z,80.77
2023-04-17T00:17:12.256Z,80.77
2023-04-17T00:18:12.459Z,80.88
2023-04-17T00:19:12.843Z,80.57
2023-04-17T00:20:12.873Z,80.67
2023-04-17T00:21:13.210Z,80.88
2023-04-17T00:22:13.562Z,80.67
2023-04-17T00:23:13.893Z,80.47
2023-04-17T00:24:14.145Z,80.47
2023-04-17T00:25:14.468Z,80.77
2023-04-17T00:26:14.731Z,80.77
2023-04-17T00:27:14.979Z,80.67
2023-04-17T00:28:15.209Z,80.88
2023-04-17T00:29:15.437Z,80.77
2023-04-17T00:30:15.664Z,80.67
2023-04-17T00:31:16.062Z,80.71
2023-04-17T00:32:16.329Z,80.71
2023-04-17T00:33:16.567Z,80.71
2023-04-17T00:34:16.821Z,80.61
2023-04-17T00:35:17.078Z,80.81
2023-04-17T00:36:17.261Z,81.02
2023-04-17T00:37:17.680Z,81.02
2023-04-17T00:38:17.879Z,81.12
2023-04-17T00:39:18.225Z,81.23
2023-04-17T00:40:18.546Z,81.12
2023-04-17T00:41:18.906Z,81.02
2023-04-17T00:42:19.266Z,80.91
2023-04-17T00:43:19.486Z,80.91
2023-04-17T00:44:19.694Z,80.71
2023-04-17T00:45:20.017Z,80.71
2023-04-17T00:46:20.406Z,81.12
2023-04-17T00:47:20.607Z,81.33
2023-04-17T00:48:20.968Z,81.23
2023-04-17T00:49:21.248Z,81.33
2023-04-17T00:50:21.522Z,81.43
2023-04-17T00:51:21.745Z,81.12
2023-04-17T00:52:22.085Z,81.23
2023-04-17T00:53:22.373Z,81.43
2023-04-17T00:54:22.597Z,81.53
2023-04-17T00:55:22.933Z,81.43
2023-04-17T00:56:23.135Z,81.53
2023-04-17T00:57:23.522Z,81.63
2023-04-17T00:58:23.745Z,81.63
2023-04-17T00:59:23.990Z,81.63
2023-04-17T01:00:24.295Z,81.63
2023-04-17T01:01:24.725Z,81.33
2023-04-17T01:02:25.107Z,81.43
2023-04-17T01:03:25.384Z,81.63
2023-04-17T01:04:25.625Z,81.43
2023-04-17T01:05:25.956Z,81.67
2023-04-17T01:06:26.105Z,81.74
2023-04-17T01:07:26.408Z,81.84
2023-04-17T01:08:26.711Z,81.74
2023-04-17T01:09:27.029Z,81.88
2023-04-17T01:10:27.423Z,81.88
2023-04-17T01:11:27.551Z,81.74
2023-04-17T01:12:27.855Z,81.63
2023-04-17T01:13:28.109Z,81.77
2023-04-17T01:14:28.300Z,81.88
2023-04-17T01:15:28.615Z,82.19
2023-04-17T01:16:29.020Z,82.29
2023-04-17T01:17:29.242Z,82.40
2023-04-17T01:18:29.517Z,82.40
2023-04-17T01:19:29.817Z,82.19
2023-04-17T01:20:30.122Z,81.98
2023-04-17T01:21:30.321Z,82.09
2023-04-17T01:22:30.648Z,82.19
2023-04-17T01:23:31.012Z,82.19
2023-04-17T01:24:31.342Z,82.29
2023-04-17T01:25:31.588Z,82.40
2023-04-17T01:26:31.834Z,82.29
2023-04-17T01:27:32.140Z,82.29
2023-04-17T01:28:32.378Z,82.09
2023-04-17T01:29:32.789Z,82.09
2023-04-17T01:30:33.076Z,81.98
2023-04-17T01:31:33.333Z,82.09
2023-04-17T01:32:33.648Z,82.29
2023-04-17T01:33:33.899Z,82.50
2023-04-17T01:34:35.631Z,82.60
2023-04-17T01:35:34.429Z,82.60
2023-04-17T01:36:34.706Z,82.81
2023-04-17T01:37:34.952Z,83.05
2023-04-17T01:38:35.218Z,83.12
2023-04-17T01:39:35.519Z,83.15
2023-04-17T01:40:35.805Z,83.26
2023-04-17T01:41:36.114Z,83.47
2023-04-17T01:42:36.434Z,83.63
2023-04-17T01:43:36.651Z,83.53
2023-04-17T01:44:37.049Z,83.42
2023-04-17T01:45:37.336Z,83.01
2023-04-17T01:46:37.704Z,83.12
2023-04-17T01:47:37.972Z,83.12
2023-04-17T01:48:38.218Z,83.22
2023-04-17T01:49:38.536Z,83.22
2023-04-17T01:50:38.743Z,83.36
2023-04-17T01:51:39.115Z,83.47
2023-04-17T01:52:39.291Z,83.56
2023-04-17T01:53:39.644Z,83.67
2023-04-17T01:54:39.979Z,83.77
2023-04-17T01:55:40.404Z,83.87
2023-04-17T01:56:40.499Z,83.98
2023-04-17T01:57:40.778Z,84.08
2023-04-17T01:58:41.004Z,84.29
2023-04-17T01:59:41.363Z,84.39
2023-04-17T02:00:41.581Z,84.49
2023-04-17T02:01:41.932Z,84.39
2023-04-17T02:02:42.380Z,84.53
2023-04-17T02:03:42.702Z,84.74
2023-04-17T02:04:42.938Z,84.84
2023-04-17T02:05:43.007Z,84.84
2023-04-17T02:06:43.372Z,84.84
2023-04-17T02:07:43.680Z,84.94
2023-04-17T02:08:43.978Z,85.05
2023-04-17T02:09:44.210Z,85.05
2023-04-17T02:10:44.443Z,85.15
2023-04-17T02:11:44.691Z,85.25
2023-04-17T02:12:44.950Z,85.46
2023-04-17T02:13:45.375Z,85.36
2023-04-17T02:14:45.563Z,85.57
2023-04-17T02:15:45.844Z,85.57
2023-04-17T02:16:46.314Z,85.46
2023-04-17T02:17:46.328Z,85.57
2023-04-17T02:18:46.724Z,85.46
2023-04-17T02:19:46.952Z,85.57
2023-04-17T02:20:47.189Z,85.57
2023-04-17T02:21:47.496Z,85.67
2023-04-17T02:22:47.768Z,85.77
2023-04-17T02:23:47.994Z,85.67
2023-04-17T02:24:48.211Z,85.67
2023-04-17T02:25:48.456Z,85.67
2023-04-17T02:26:48.724Z,85.57
2023-04-17T02:27:48.948Z,85.67
2023-04-17T02:28:49.207Z,85.77
2023-04-17T02:29:49.492Z,86.02
2023-04-17T02:30:49.784Z,86.12
2023-04-17T02:31:50.054Z,86.12
2023-04-17T02:32:50.281Z,86.22
2023-04-17T02:33:50.505Z,86.32
2023-04-17T02:34:50.724Z,86.53
2023-04-17T02:35:51.097Z,86.63
2023-04-17T02:36:51.331Z,86.63
2023-04-17T02:37:51.560Z,86.74
2023-04-17T02:38:51.788Z,86.84
2023-04-17T02:39:52.139Z,86.94
2023-04-17T02:40:52.373Z,86.84
2023-04-17T02:41:52.621Z,86.84
2023-04-17T02:42:52.820Z,86.74
2023-04-17T02:43:53.200Z,86.84
2023-04-17T02:44:53.403Z,86.84
2023-04-17T02:45:53.739Z,86.94
2023-04-17T02:46:54.174Z,86.94
2023-04-17T02:47:54.426Z,87.05
2023-04-17T02:48:54.592Z,87.05
2023-04-17T02:49:54.919Z,86.94
2023-04-17T02:50:55.271Z,86.94
2023-04-17T02:51:55.642Z,86.94
2023-04-17T02:52:55.873Z,86.74
2023-04-17T02:53:56.087Z,86.88
2023-04-17T02:54:56.437Z,86.98
2023-04-17T02:55:56.763Z,86.98
2023-04-17T02:56:57.007Z,87.19
2023-04-17T02:57:57.236Z,87.19
2023-04-17T02:58:57.569Z,87.29
2023-04-17T02:59:57.795Z,87.29
2023-04-17T03:00:58.092Z,87.19
2023-04-17T03:01:58.331Z,87.29
2023-04-17T03:02:58.698Z,87.40
2023-04-17T03:03:59.034Z,87.40
2023-04-17T03:04:59.080Z,87.50
2023-04-17T03:05:59.465Z,87.50
2023-04-17T03:06:59.673Z,87.60
2023-04-17T03:08:00.075Z,87.74
2023-04-17T03:09:00.256Z,87.74
2023-04-17T03:10:00.593Z,87.60
2023-04-17T03:11:00.974Z,87.65
2023-04-17T03:12:01.203Z,87.65
2023-04-17T03:13:01.432Z,87.74
2023-04-17T03:14:01.785Z,87.74
2023-04-17T03:15:02.093Z,87.74
2023-04-17T03:16:02.492Z,87.85
2023-04-17T03:17:02.709Z,87.95
2023-04-17T03:18:02.998Z,88.06
2023-04-17T03:19:03.176Z,88.06
2023-04-17T03:20:03.497Z,87.95
2023-04-17T03:21:03.861Z,88.06
2023-04-17T03:22:04.069Z,87.85
2023-04-17T03:23:04.413Z,87.85
2023-04-17T03:24:04.745Z,87.95
2023-04-17T03:25:05.091Z,87.95
2023-04-17T03:26:05.434Z,87.95
2023-04-17T03:27:05.774Z,87.95
2023-04-17T03:28:05.990Z,88.06
2023-04-17T03:29:06.318Z,88.16
2023-04-17T03:30:06.821Z,88.16
2023-04-17T03:31:06.911Z,88.26
2023-04-17T03:32:07.196Z,88.37
2023-04-17T03:33:07.392Z,88.37
2023-04-17T03:34:07.749Z,88.47
2023-04-17T03:35:07.978Z,88.47
2023-04-17T03:36:08.342Z,88.47
2023-04-17T03:37:08.535Z,88.68
2023-04-17T03:38:08.922Z,88.47
2023-04-17T03:39:09.236Z,88.57
2023-04-17T03:40:09.476Z,88.47
2023-04-17T03:41:09.846Z,88.32
2023-04-17T03:42:10.068Z,88.32
2023-04-17T03:43:10.416Z,88.37
2023-04-17T03:44:10.658Z,88.26
2023-04-17T03:45:10.935Z,88.32
2023-04-17T03:46:11.178Z,88.32
2023-04-17T03:47:11.447Z,88.43
2023-04-17T03:48:11.695Z,88.32
2023-04-17T03:49:12.067Z,88.53
2023-04-17T03:50:12.164Z,88.43
2023-04-17T03:51:12.428Z,88.43
2023-04-17T03:52:12.664Z,88.22
2023-04-17T03:53:12.904Z,88.26
2023-04-17T03:54:13.120Z,88.37
2023-04-17T03:55:13.536Z,88.57
2023-04-17T03:56:13.743Z,88.47
2023-04-17T03:57:13.982Z,88.57
2023-04-17T03:58:14.191Z,88.57
2023-04-17T03:59:14.554Z,88.74
2023-04-17T04:00:14.831Z,88.68
2023-04-17T04:01:15.075Z,88.64
2023-04-17T04:02:15.365Z,88.43
2023-04-17T04:03:15.762Z,88.32
2023-04-17T04:04:15.985Z,88.43
2023-04-17T04:05:16.212Z,88.32
2023-04-17T04:06:16.423Z,88.43
2023-04-17T04:07:16.674Z,88.43
2023-04-17T04:08:16.928Z,88.43
2023-04-17T04:09:17.161Z,88.43
2023-04-17T04:10:17.428Z,88.53
2023-04-17T04:11:17.695Z,88.43
2023-04-17T04:12:17.946Z,88.43
2023-04-17T04:13:18.203Z,88.47
2023-04-17T04:14:18.476Z,88.68
2023-04-17T04:15:18.752Z,88.78
2023-04-17T04:16:19.027Z,88.89
2023-04-17T04:17:19.304Z,88.98
2023-04-17T04:18:19.519Z,88.98
2023-04-17T04:19:19.763Z,88.98
2023-04-17T04:20:30.265Z,88.98
2023-04-17T04:21:20.558Z,88.89
2023-04-17T04:22:20.697Z,88.89
2023-04-17T04:23:21.076Z,88.89
2023-04-17T04:24:21.161Z,88.98
2023-04-17T04:25:21.420Z,88.92
2023-04-17T04:26:21.681Z,89.13
2023-04-17T04:27:21.967Z,89.23
2023-04-17T04:28:22.208Z,89.13
2023-04-17T04:29:22.497Z,89.23
2023-04-17T04:30:22.734Z,89.34
2023-04-17T04:31:23.082Z,89.65
2023-04-17T04:32:23.328Z,89.75
2023-04-17T04:33:23.581Z,89.54
2023-04-17T04:34:23.866Z,89.44
2023-04-17T04:35:24.129Z,89.40
2023-04-17T04:36:24.378Z,89.40
2023-04-17T04:37:24.661Z,89.19
2023-04-17T04:38:24.905Z,88.98
2023-04-17T04:39:25.190Z,88.78
2023-04-17T04:40:25.436Z,88.89
2023-04-17T04:41:25.692Z,88.78
2023-04-17T04:42:25.948Z,88.78
2023-04-17T04:43:26.213Z,88.78
2023-04-17T04:44:26.501Z,88.78
2023-04-17T04:45:26.728Z,88.89
2023-04-17T04:46:27.062Z,88.89
2023-04-17T04:47:27.307Z,88.98
2023-04-17T04:48:27.546Z,89.09
2023-04-17T04:49:27.837Z,88.98
2023-04-17T04:50:28.097Z,88.78
2023-04-17T04:51:28.365Z,88.78
2023-04-17T04:52:28.593Z,88.78
2023-04-17T04:53:28.862Z,88.89
2023-04-17T04:54:29.114Z,88.98
2023-04-17T04:55:29.355Z,89.09
2023-04-17T04:56:32.340Z,89.09
2023-04-17T04:57:29.856Z,88.98
2023-04-17T04:58:30.103Z,88.98
2023-04-17T04:59:30.372Z,88.98
2023-04-17T05:00:30.641Z,88.98
2023-04-17T05:01:30.995Z,88.68
2023-04-17T05:02:31.255Z,88.37
2023-04-17T05:03:31.613Z,88.37
2023-04-17T05:04:31.937Z,88.37
2023-04-17T05:05:32.030Z,88.16
2023-04-17T05:06:32.293Z,88.06
2023-04-17T05:07:32.573Z,87.85
2023-04-17T05:08:32.871Z,88.10
2023-04-17T05:09:33.131Z,88.31
2023-04-17T05:10:33.473Z,88.61
2023-04-17T05:11:33.834Z,88.41
2023-04-17T05:12:34.071Z,88.51
2023-04-17T05:13:34.914Z,88.61
2023-04-17T05:16:21.846Z,88.71
2023-04-17T05:17:21.849Z,88.82
2023-04-17T05:18:22.246Z,88.82
2023-04-17T05:19:22.528Z,88.82
2023-04-17T05:20:22.738Z,88.92
2023-04-17T05:21:22.918Z,88.92
2023-04-17T05:22:23.236Z,89.03
2023-04-17T05:23:23.552Z,89.13
2023-04-17T05:24:24.035Z,89.03
2023-04-17T05:25:24.281Z,88.92
2023-04-17T05:26:24.583Z,88.78
2023-04-17T05:27:24.815Z,88.78
2023-04-17T05:28:25.071Z,88.78
2023-04-17T05:29:25.910Z,88.68
2023-04-17T05:30:25.744Z,88.68
2023-04-17T05:31:25.883Z,88.57
2023-04-17T05:32:26.947Z,88.71
2023-04-17T05:33:26.690Z,88.68
2023-04-17T05:34:27.194Z,88.68
2023-04-17T05:35:27.765Z,88.47
2023-04-17T05:36:27.673Z,88.06
2023-04-17T05:37:27.689Z,88.06
2023-04-17T05:38:28.007Z,87.99
2023-04-17T05:39:28.217Z,88.10
2023-04-17T05:40:28.645Z,88.20
2023-04-17T05:41:28.670Z,88.26
2023-04-17T05:42:29.018Z,88.31
2023-04-17T05:43:30.174Z,88.31
2023-04-17T05:44:29.911Z,88.41
2023-04-17T05:45:29.851Z,88.51
2023-04-17T05:46:30.087Z,88.37
2023-04-17T05:47:30.552Z,88.37
2023-04-17T05:48:30.831Z,88.26
2023-04-17T05:49:31.016Z,88.20
2023-04-17T05:50:31.296Z,88.16
2023-04-17T05:51:32.067Z,88.37
2023-04-17T05:52:32.317Z,88.26
2023-04-17T05:53:32.215Z,88.16
2023-04-17T05:54:32.638Z,88.06
2023-04-17T05:55:32.836Z,88.16
2023-04-17T05:56:33.203Z,88.37
2023-04-17T05:57:33.385Z,88.26
2023-04-17T05:58:33.780Z,88.26
2023-04-17T05:59:33.979Z,88.16
2023-04-17T06:00:34.233Z,88.06
2023-04-17T06:01:34.479Z,87.95
2023-04-17T06:02:34.863Z,88.06
2023-04-17T06:03:35.335Z,88.06
2023-04-17T06:04:36.733Z,88.06
2023-04-17T06:05:36.919Z,87.95
2023-04-17T06:06:36.028Z,87.85
2023-04-17T06:07:36.342Z,87.74
2023-04-17T06:08:36.635Z,87.85
2023-04-17T06:09:36.962Z,87.65
2023-04-17T06:10:37.214Z,87.74
2023-04-17T06:11:37.534Z,87.85
2023-04-17T06:12:37.782Z,87.54
2023-04-17T06:13:38.083Z,87.65
2023-04-17T06:14:38.397Z,87.74
2023-04-17T06:15:38.578Z,87.85
2023-04-17T06:16:38.855Z,87.92
2023-04-17T06:17:39.174Z,88.02
2023-04-17T06:18:39.425Z,88.02
2023-04-17T06:19:39.722Z,87.71
2023-04-17T06:20:40.264Z,87.60
2023-04-17T06:21:40.230Z,87.40
2023-04-17T06:22:40.513Z,87.60
2023-04-17T06:23:40.848Z,87.71
2023-04-17T06:24:41.136Z,87.50
2023-04-17T06:25:41.415Z,87.08
2023-04-17T06:26:41.772Z,86.98
2023-04-17T06:27:41.959Z,87.08
2023-04-17T06:28:42.233Z,87.29
2023-04-17T06:29:42.571Z,87.40
2023-04-17T06:30:42.950Z,86.98
2023-04-17T06:31:43.177Z,86.98
2023-04-17T06:32:43.490Z,87.08
2023-04-17T06:33:43.727Z,87.40
2023-04-17T06:34:58.206Z,87.29
2023-04-17T06:35:45.340Z,87.08
2023-04-17T06:36:44.533Z,86.98
2023-04-17T06:37:44.835Z,87.19
2023-04-17T06:38:45.085Z,87.19
2023-04-17T06:39:45.414Z,87.29
2023-04-17T06:40:45.665Z,87.08
2023-04-17T06:41:45.921Z,86.98
2023-04-17T06:42:46.182Z,87.08
2023-04-17T06:43:46.515Z,86.98
2023-04-17T06:44:46.895Z,87.08
2023-04-17T06:45:47.037Z,86.98
2023-04-17T06:46:47.537Z,86.98
2023-04-17T06:47:47.589Z,86.94
2023-04-17T06:48:47.912Z,86.74
2023-04-17T06:49:48.251Z,86.63
2023-04-17T06:50:48.505Z,86.84
2023-04-17T06:51:48.793Z,86.98
2023-04-17T06:52:49.192Z,86.88
2023-04-17T06:53:49.429Z,86.94
2023-04-17T06:54:49.656Z,86.94
2023-04-17T06:55:49.917Z,86.84
2023-04-17T06:56:50.227Z,86.84
2023-04-17T06:57:50.583Z,86.74
2023-04-17T06:58:50.943Z,86.84
2023-04-17T06:59:51.160Z,86.84
2023-04-17T07:00:51.405Z,86.84
2023-04-17T07:01:51.652Z,86.53
2023-04-17T07:02:52.003Z,86.43
2023-04-17T07:03:52.314Z,86.43
2023-04-17T07:04:52.744Z,86.53
2023-04-17T07:05:52.959Z,86.68
2023-04-17T07:06:53.080Z,86.84
2023-04-17T07:07:53.336Z,86.74
2023-04-17T07:08:55.513Z,86.84
2023-04-17T07:09:53.784Z,86.43
2023-04-17T07:10:54.098Z,86.63
2023-04-17T07:11:54.433Z,86.78
2023-04-17T07:12:54.675Z,86.94
2023-04-17T07:13:54.916Z,86.84
2023-04-17T07:14:55.212Z,86.94
2023-04-17T07:15:55.574Z,86.94
2023-04-17T07:16:55.805Z,86.63
2023-04-17T07:17:55.980Z,86.43
2023-04-17T07:18:56.281Z,86.43
2023-04-17T07:19:56.581Z,86.32
2023-04-17T07:20:56.850Z,86.43
2023-04-17T07:21:57.089Z,86.53
2023-04-17T07:22:57.994Z,86.60
2023-04-17T07:23:58.432Z,86.39
2023-04-17T07:24:58.681Z,85.97
2023-04-17T07:25:58.514Z,85.97
2023-04-17T07:26:58.971Z,85.87
2023-04-17T07:27:58.792Z,86.08
2023-04-17T07:28:59.056Z,86.18
2023-04-17T07:29:59.335Z,86.39
2023-04-17T07:30:59.670Z,86.29
2023-04-17T07:31:59.927Z,85.94
2023-04-17T07:33:00.277Z,85.63
2023-04-17T07:34:00.456Z,85.36
2023-04-17T07:35:00.746Z,85.42
2023-04-17T07:36:01.031Z,85.31
2023-04-17T07:37:01.304Z,85.31
2023-04-17T07:38:01.541Z,85.42
2023-04-17T07:39:01.919Z,85.42
2023-04-17T07:40:02.185Z,85.31
2023-04-17T07:41:02.419Z,85.31
2023-04-17T07:42:02.681Z,85.22
2023-04-17T07:43:02.974Z,84.91
2023-04-17T07:44:03.226Z,84.49
2023-04-17T07:45:03.477Z,84.49
2023-04-17T07:46:03.772Z,84.49
2023-04-17T07:47:04.064Z,84.70
2023-04-17T07:48:04.372Z,84.29
2023-04-17T07:49:04.574Z,83.98
2023-04-17T07:50:05.624Z,83.67
2023-04-17T07:51:05.167Z,83.77
2023-04-17T07:52:05.447Z,84.08
2023-04-17T07:53:05.724Z,84.08
2023-04-17T07:54:05.990Z,84.08
2023-04-17T07:55:06.264Z,83.67
2023-04-17T07:56:06.552Z,83.36
2023-04-17T07:57:06.828Z,83.67
2023-04-17T07:58:07.086Z,83.26
2023-04-17T07:59:07.352Z,83.36
2023-04-17T08:00:07.642Z,83.05
2023-04-17T08:01:07.886Z,83.26
2023-04-17T08:02:09.042Z,83.47
2023-04-17T08:03:08.651Z,83.26
2023-04-17T08:04:09.032Z,83.26
2023-04-17T08:05:09.078Z,83.36
2023-04-17T08:06:09.298Z,83.56
2023-04-17T08:07:09.546Z,83.36
2023-04-17T08:08:09.825Z,83.47
2023-04-17T08:09:10.314Z,83.47
2023-04-17T08:10:10.422Z,83.26
2023-04-17T08:11:10.679Z,83.36
2023-04-17T08:12:10.957Z,83.67
2023-04-17T08:13:11.196Z,83.84
2023-04-17T08:14:11.469Z,83.42
2023-04-17T08:15:11.752Z,83.26
2023-04-17T08:16:12.037Z,83.32
2023-04-17T08:17:12.436Z,83.42
2023-04-17T08:18:12.575Z,83.53
2023-04-17T08:19:12.993Z,83.63
2023-04-17T08:20:13.180Z,83.42
2023-04-17T08:21:13.435Z,83.32
2023-04-17T08:22:13.704Z,83.47
2023-04-17T08:23:14.034Z,83.47
2023-04-17T08:24:14.317Z,83.67
2023-04-17T08:25:14.643Z,83.77
2023-04-17T08:26:14.898Z,83.56
2023-04-17T08:27:15.156Z,83.26
2023-04-17T08:28:15.435Z,83.47
2023-04-17T08:29:15.982Z,83.36
2023-04-17T08:30:18.825Z,83.47
2023-04-17T08:31:16.275Z,83.98
2023-04-17T08:32:16.698Z,83.98
2023-04-17T08:33:16.861Z,83.77
2023-04-17T08:34:17.104Z,83.47
2023-04-17T08:35:17.427Z,83.56
2023-04-17T08:36:17.662Z,83.36
2023-04-17T08:37:17.977Z,83.05
2023-04-17T08:38:18.203Z,82.74
2023-04-17T08:39:18.476Z,82.40
2023-04-17T08:40:18.853Z,82.40
2023-04-17T08:41:18.972Z,82.40
2023-04-17T08:42:19.319Z,81.98
2023-04-17T08:43:19.607Z,81.98
2023-04-17T08:44:19.900Z,81.88
2023-04-17T08:45:20.204Z,81.84
2023-04-17T08:46:20.590Z,81.84
2023-04-17T08:47:20.875Z,81.95
2023-04-17T08:48:21.121Z,81.53
2023-04-17T08:49:21.329Z,81.43
2023-04-17T08:50:21.943Z,81.43
2023-04-17T08:51:21.935Z,81.63
2023-04-17T08:52:22.235Z,81.33
2023-04-17T08:53:22.473Z,80.71
2023-04-17T08:54:22.828Z,81.02
2023-04-17T08:55:23.076Z,81.33
2023-04-17T08:56:23.383Z,81.53
2023-04-17T08:57:23.720Z,81.19
2023-04-17T08:58:28.456Z,80.88
2023-04-17T08:59:24.270Z,80.67
2023-04-17T09:00:24.506Z,80.05
2023-04-17T09:01:24.823Z,80.05
2023-04-17T09:02:27.610Z,79.91
2023-04-17T09:03:25.554Z,79.61
2023-04-17T09:04:25.915Z,79.81
2023-04-17T09:05:25.962Z,79.50
2023-04-17T09:06:26.223Z,79.64
2023-04-17T09:07:26.494Z,80.02
2023-04-17T09:08:26.762Z,80.02
2023-04-17T09:09:27.055Z,80.12
2023-04-17T09:10:27.332Z,79.81
2023-04-17T09:11:27.639Z,79.81
2023-04-17T09:12:27.936Z,79.30
2023-04-17T09:13:28.198Z,79.44
2023-04-17T09:14:28.511Z,79.95
2023-04-17T09:15:28.822Z,79.85
2023-04-17T09:16:29.142Z,80.05
2023-04-17T09:17:29.401Z,80.57
2023-04-17T09:18:29.650Z,80.57
2023-04-17T09:19:29.936Z,80.36
2023-04-17T09:20:30.243Z,80.67
2023-04-17T09:21:30.508Z,80.05
2023-04-17T09:22:30.764Z,79.95
2023-04-17T09:23:31.035Z,80.16
2023-04-17T09:24:31.289Z,80.57
2023-04-17T09:25:31.548Z,80.67
2023-04-17T09:26:31.805Z,80.77
2023-04-17T09:27:32.087Z,80.36
2023-04-17T09:28:32.353Z,80.05
2023-04-17T09:29:32.619Z,80.26
2023-04-17T09:30:32.896Z,80.26
2023-04-17T09:31:33.176Z,80.16
2023-04-17T09:32:33.428Z,80.26
2023-04-17T09:33:33.665Z,80.47
2023-04-17T09:34:33.935Z,79.75
2023-04-17T09:35:34.982Z,79.91
2023-04-17T09:36:34.530Z,79.81
2023-04-17T09:37:34.800Z,79.81
2023-04-17T09:38:35.067Z,79.81
2023-04-17T09:39:35.310Z,79.81
2023-04-17T09:40:35.578Z,79.81
2023-04-17T09:41:35.851Z,79.91
2023-04-17T09:42:36.099Z,79.61
2023-04-17T09:43:36.396Z,79.91
2023-04-17T09:44:36.667Z,79.40
2023-04-17T09:45:36.914Z,79.36
2023-04-17T09:46:37.191Z,79.36
2023-04-17T09:47:37.444Z,79.47
2023-04-17T09:48:37.695Z,79.57
2023-04-17T09:49:37.972Z,79.57
2023-04-17T09:50:39.007Z,79.47
2023-04-17T09:51:38.457Z,79.16
2023-04-17T09:52:38.688Z,79.26
2023-04-17T09:53:39.020Z,78.96
2023-04-17T09:54:39.271Z,79.26
2023-04-17T09:55:39.540Z,79.36
2023-04-17T09:56:39.876Z,79.36
2023-04-17T09:57:40.501Z,79.16
2023-04-17T09:58:40.444Z,78.75
2023-04-17T09:59:40.718Z,79.05
2023-04-17T10:00:41.022Z,78.75
2023-04-17T10:01:41.276Z,78.96
2023-04-17T10:02:41.791Z,78.75
2023-04-17T10:03:42.101Z,79.16
2023-04-17T10:04:42.249Z,78.54
2023-04-17T10:05:42.366Z,78.44
2023-04-17T10:06:42.628Z,78.75
2023-04-17T10:07:42.861Z,78.75
2023-04-17T10:08:43.118Z,79.16
2023-04-17T10:09:43.410Z,78.85
2023-04-17T10:10:43.667Z,79.22
2023-04-17T10:11:43.958Z,78.81
2023-04-17T10:12:44.272Z,79.33
2023-04-17T10:13:44.539Z,79.53
2023-04-17T10:14:44.803Z,79.74
2023-04-17T10:15:45.056Z,78.09
2023-04-17T10:16:45.424Z,77.99
2023-04-17T10:17:45.629Z,77.99
2023-04-17T10:18:45.834Z,78.16
2023-04-17T10:19:46.104Z,78.47
2023-04-17T10:20:46.366Z,78.06
2023-04-17T10:21:46.613Z,78.47
2023-04-17T10:22:46.878Z,78.36
2023-04-17T10:23:47.194Z,78.16
2023-04-17T10:24:47.499Z,78.57
2023-04-17T10:25:47.767Z,77.75
2023-04-17T10:26:48.033Z,78.06
2023-04-17T10:27:48.300Z,77.55
2023-04-17T10:28:49.090Z,77.10
2023-04-17T10:29:48.982Z,77.00
2023-04-17T10:30:49.264Z,76.89
2023-04-17T10:31:49.578Z,77.10
2023-04-17T10:32:49.856Z,77.10
2023-04-17T10:33:50.103Z,77.20
2023-04-17T10:34:50.391Z,76.79
2023-04-17T10:35:50.637Z,76.45
2023-04-17T10:36:50.922Z,76.45
2023-04-17T10:37:51.187Z,76.14
2023-04-17T10:38:51.454Z,75.83
2023-04-17T10:39:51.734Z,75.73
2023-04-17T10:40:52.049Z,75.52
2023-04-17T10:41:52.318Z,75.73
2023-04-17T10:42:52.631Z,75.32
2023-04-17T10:43:52.902Z,75.21
2023-04-17T10:44:53.197Z,75.42
2023-04-17T10:45:53.601Z,75.42
2023-04-17T10:46:53.741Z,75.62
2023-04-17T10:47:54.042Z,75.83
2023-04-17T10:48:54.285Z,75.83
2023-04-17T10:49:54.535Z,76.45
2023-04-17T10:50:54.824Z,76.04
2023-04-17T10:51:55.073Z,76.34
2023-04-17T10:52:55.361Z,76.14
2023-04-17T10:53:55.608Z,75.83
2023-04-17T10:54:55.855Z,76.55
2023-04-17T10:55:56.155Z,76.45
2023-04-17T10:56:56.455Z,76.55
2023-04-17T10:57:56.701Z,76.14
2023-04-17T10:58:56.966Z,76.48
2023-04-17T10:59:57.246Z,76.79
2023-04-17T11:00:57.625Z,77.10
2023-04-17T11:01:58.251Z,77.20
2023-04-17T11:02:58.150Z,76.79
2023-04-17T11:03:58.283Z,76.38
2023-04-17T11:04:58.656Z,76.79
2023-04-17T11:05:58.843Z,77.10
2023-04-17T11:06:59.094Z,77.30
2023-04-17T11:07:59.341Z,76.89
2023-04-17T11:08:59.623Z,77.00
2023-04-17T11:09:59.869Z,77.30
2023-04-17T11:11:00.150Z,77.61
2023-04-17T11:12:00.432Z,77.51
2023-04-17T11:13:00.761Z,77.51
2023-04-17T11:14:01.012Z,77.61
2023-04-17T11:15:01.265Z,77.00
2023-04-17T11:16:01.584Z,76.86
2023-04-17T11:17:02.003Z,76.75
2023-04-17T11:18:02.221Z,76.24
2023-04-17T11:19:02.490Z,76.14
2023-04-17T11:20:02.743Z,75.93
2023-04-17T11:21:03.056Z,76.34
2023-04-17T11:22:03.320Z,76.24
2023-04-17T11:23:03.605Z,75.93
2023-04-17T11:24:03.857Z,75.93
2023-04-17T11:25:04.113Z,75.90
2023-04-17T11:26:04.398Z,75.59
2023-04-17T11:27:04.685Z,75.08
2023-04-17T11:28:04.929Z,75.28
2023-04-17T11:29:05.201Z,75.49
2023-04-17T11:30:05.481Z,75.49
2023-04-17T11:31:05.784Z,75.38
2023-04-17T11:32:05.998Z,75.49
2023-04-17T11:33:06.260Z,75.08
2023-04-17T11:34:06.540Z,75.28
2023-04-17T11:35:06.807Z,75.38
2023-04-17T11:36:07.151Z,75.18
2023-04-17T11:37:07.312Z,75.38
2023-04-17T11:38:07.604Z,75.08
2023-04-17T11:39:07.874Z,75.18
2023-04-17T11:40:08.126Z,75.18
2023-04-17T11:41:08.378Z,75.18
2023-04-17T11:42:08.643Z,75.18
2023-04-17T11:43:08.900Z,75.59
2023-04-17T11:44:09.179Z,75.79
2023-04-17T11:45:09.454Z,76.00
2023-04-17T11:46:09.721Z,76.10
2023-04-17T11:47:09.955Z,76.20
2023-04-17T11:48:10.237Z,75.90
2023-04-17T11:49:10.684Z,75.59
2023-04-17T11:50:10.750Z,75.90
2023-04-17T11:51:11.040Z,76.31
2023-04-17T11:52:11.289Z,76.10
2023-04-17T11:53:11.577Z,76.10
2023-04-17T11:54:11.994Z,76.31
2023-04-17T11:55:12.175Z,76.04
2023-04-17T11:56:12.398Z,75.83
2023-04-17T11:57:12.694Z,75.90
2023-04-17T11:58:12.949Z,76.20
2023-04-17T11:59:13.309Z,76.31
2023-04-17T12:00:13.444Z,75.79
2023-04-17T12:01:13.704Z,75.52
2023-04-17T12:02:13.979Z,75.42
2023-04-17T12:03:14.488Z,75.93
2023-04-17T12:04:14.809Z,75.93
2023-04-17T12:05:14.968Z,76.04
2023-04-17T12:06:15.830Z,76.34
2023-04-17T12:07:15.396Z,76.14
2023-04-17T12:08:15.700Z,75.93
2023-04-17T12:09:15.950Z,75.73
2023-04-17T12:10:16.248Z,75.62
2023-04-17T12:11:17.432Z,75.52
2023-04-17T12:12:16.749Z,75.90
2023-04-17T12:13:17.052Z,75.59
2023-04-17T12:14:17.332Z,75.59
2023-04-17T12:15:17.539Z,75.59
2023-04-17T12:16:17.797Z,75.69
2023-04-17T12:17:18.112Z,75.38
2023-04-17T12:18:18.340Z,75.69
2023-04-17T12:19:18.573Z,75.59
2023-04-17T12:20:18.917Z,75.28
2023-04-17T12:21:19.280Z,75.90
2023-04-17T12:22:19.628Z,76.31
2023-04-17T12:23:19.875Z,76.41
2023-04-17T12:24:20.106Z,76.51
2023-04-17T12:25:20.425Z,76.31
2023-04-17T12:26:20.674Z,76.62
2023-04-17T12:27:21.043Z,76.92
2023-04-17T12:28:21.296Z,77.33
2023-04-17T12:29:32.236Z,77.44
2023-04-17T12:30:22.854Z,77.84
2023-04-17T12:31:22.198Z,78.16
2023-04-17T12:32:22.427Z,77.84
2023-04-17T12:33:22.615Z,77.71
2023-04-17T12:34:22.827Z,77.23
2023-04-17T12:35:23.165Z,77.44
2023-04-17T12:36:23.585Z,77.20
2023-04-17T12:37:23.785Z,76.27
2023-04-17T12:38:24.010Z,75.79
2023-04-17T12:39:24.364Z,76.10
2023-04-17T12:40:25.001Z,75.90
2023-04-17T12:41:24.924Z,76.20
2023-04-17T12:42:25.915Z,76.31
2023-04-17T12:43:25.640Z,76.62
2023-04-17T12:44:25.846Z,76.82
2023-04-17T12:45:26.116Z,76.62
2023-04-17T12:46:26.337Z,75.90
2023-04-17T12:47:26.609Z,75.79
2023-04-17T12:48:26.932Z,75.49
2023-04-17T12:49:27.104Z,75.38
2023-04-17T12:50:27.465Z,74.98
2023-04-17T12:51:27.814Z,75.38
2023-04-17T12:52:28.151Z,75.73
2023-04-17T12:53:29.111Z,75.21
2023-04-17T12:54:28.660Z,75.32
2023-04-17T12:55:28.883Z,75.83
2023-04-17T12:56:30.039Z,75.83
2023-04-17T12:57:29.674Z,75.83